Time;durP1;ratioP1;P1;durP2;ratioP2;P2;SDS_P1;SDS_P2;PMS_P1;PMS_P2;Temp;Humidity;BMP_temperature;BMP_pressure;BME280_temperature;BME280_humidity;BME280_pressure;Samples;Min_cycle;Max_cycle;Signal;HPM_P1;HPM_P2
2022/09/06 00:00:37;;;;;;;;;;;;;;;;;;5094356;28;20011;-77
2022/09/06 00:03:04;;;;;;;;;;;;;;;;;;5090987;28;19928;-78
2022/09/06 00:05:31;;;;;;;;;;;;;;;;;;5090860;28;19983;-76
2022/09/06 00:07:58;;;;;;;;;;;;;;;;;;5094070;28;20027;-78
2022/09/06 00:10:24;;;;;;;;;;;;;;;;;;5093804;28;19930;-77
2022/09/06 00:12:54;;;;;;;;;;;;;;;;;;5094272;28;19963;-77
2022/09/06 00:15:45;;;;;;;;;;;;;;;;;;5094340;28;19977;-77
2022/09/06 00:21:36;;;;;;;;;;;;;;;;;;5080888;28;20049;-77
2022/09/06 00:24:25;;;;;;;;;;;;;;;;;;5090043;28;20654;-77
2022/09/06 00:26:53;;;;;;;;;;;;;;;;;;5084251;28;20442;-77
2022/09/06 00:29:20;;;;;;;;;;;;;;;;;;5093417;28;19924;-77
2022/09/06 00:31:47;;;;;;;;;;;;;;;;;;5090229;28;20008;-77
2022/09/06 00:34:13;;;;;;;;;;;;;;;;;;5093484;28;19978;-77
2022/09/06 00:36:40;;;;;;;;;;;;;;;;;;5093431;28;19967;-77
2022/09/06 00:39:06;;;;;;;;;;;;;;;;;;5093074;28;19928;-78
2022/09/06 00:41:33;;;;;;;;;;;;;;;;;;5093046;28;19924;-77
2022/09/06 00:44:00;;;;;;;;;;;;;;;;;;5093471;28;19986;-77
2022/09/06 00:46:28;;;;;;;;;;;;;;;;;;5093066;28;19982;-77
2022/09/06 00:48:57;;;;;;;;;;;;;;;;;;5091193;28;20379;-76
2022/09/06 00:51:24;;;;;;;;;;;;;;;;;;5091329;28;20387;-77
2022/09/06 00:53:51;;;;;;;;;;;;;;;;;;5093704;28;19954;-77
2022/09/06 00:56:18;;;;;;;;;;;;;;;;;;5093932;28;19924;-78
2022/09/06 00:58:45;;;;;;;;;;;;;;;;;;5092933;28;20291;-78
2022/09/06 01:01:13;;;;;;;;;;;;;;;;;;5093203;28;19946;-77
2022/09/06 01:03:39;;;;;;;;;;;;;;;;;;5099037;22;20297;-60
2022/09/06 01:06:14;;;;;;;;;;;;;;;;;;5060254;28;19924;-61
2022/09/06 01:08:45;;;;;;;;;;;;;;;;;;5071696;28;19924;-60
2022/09/06 01:11:26;;;;;;;;;;;;;;;;;;5071088;28;20360;-61
2022/09/06 01:13:56;;;;;;;;;;;;;;;;;;5058381;28;20490;-61
2022/09/06 01:16:29;;;;;;;;;;;;;;;;;;5066059;28;19935;-61
2022/09/06 01:19:04;;;;;;;;;;;;;;;;;;5071224;28;19935;-61
2022/09/06 01:21:38;;;;;;;;;;;;;;;;;;5071363;28;19931;-61
2022/09/06 01:24:24;;;;;;;;;;;;;;;;;;5051911;28;19929;-61
2022/09/06 01:27:17;;;;;;;;;;;;;;;;;;5071747;28;19924;-61
2022/09/06 01:29:48;;;;;;;;;;;;;;;;;;5046569;28;19929;-61
2022/09/06 01:32:17;;;;;;;;;;;;;;;;;;5071207;28;19925;-61
2022/09/06 01:34:45;;;;;;;;;;;;;;;;;;5071477;28;20285;-61
2022/09/06 01:37:13;;;;;;;;;;;;;;;;;;5076847;28;19931;-61
2022/09/06 01:39:40;;;;;;;;;;;;;;;;;;5078124;28;19924;-61
2022/09/06 01:42:09;;;;;;;;;;;;;;;;;;5075447;28;19932;-61
2022/09/06 01:44:37;;;;;;;;;;;;;;;;;;5074671;28;20352;-61
2022/09/06 01:47:10;;;;;;;;;;;;;;;;;;5083160;28;20384;-60
2022/09/06 01:49:43;;;;;;;;;;;;;;;;;;5095159;28;19946;-61
2022/09/06 01:52:13;;;;;;;;;;;;;;;;;;5095231;28;19931;-61
2022/09/06 01:54:46;;;;;;;;;;;;;;;;;;5095038;28;19939;-61
2022/09/06 01:57:21;;;;;;;;;;;;;;;;;;5085558;28;20356;-60
2022/09/06 01:59:56;;;;;;;;;;;;;;;;;;5074707;28;19925;-61
2022/09/06 02:02:26;;;;;;;;;;;;;;;;;;5083747;28;19967;-61
2022/09/06 02:04:57;;;;;;;;;;;;;;;;;;5094742;28;19924;-61
2022/09/06 02:07:25;;;;;;;;;;;;;;;;;;5094875;28;19986;-61
2022/09/06 02:09:53;;;;;;;;;;;;;;;;;;5094662;28;19931;-61
2022/09/06 02:12:21;;;;;;;;;;;;;;;;;;5094770;28;20330;-61
2022/09/06 02:14:52;;;;;;;;;;;;;;;;;;5094643;28;19924;-60
2022/09/06 02:17:21;;;;;;;;;;;;;;;;;;5094684;28;19931;-61
2022/09/06 02:19:50;;;;;;;;;;;;;;;;;;5094436;28;19924;-61
2022/09/06 02:22:19;;;;;;;;;;;;;;;;;;5094325;28;19971;-60
2022/09/06 02:24:47;;;;;;;;;;;;;;;;;;5094631;28;20281;-60
2022/09/06 02:27:15;;;;;;;;;;;;;;;;;;5088225;28;20400;-60
2022/09/06 02:29:42;;;;;;;;;;;;;;;;;;5073711;28;19931;-61
2022/09/06 02:32:13;;;;;;;;;;;;;;;;;;5074039;28;19979;-61
2022/09/06 02:34:41;;;;;;;;;;;;;;;;;;5074289;28;19947;-60
2022/09/06 02:37:11;;;;;;;;;;;;;;;;;;5074611;28;20381;-61
2022/09/06 02:39:38;;;;;;;;;;;;;;;;;;5074241;28;20452;-61
2022/09/06 02:42:05;;;;;;;;;;;;;;;;;;5074220;28;19924;-61
2022/09/06 02:44:32;;;;;;;;;;;;;;;;;;5074456;28;19925;-61
2022/09/06 02:47:00;;;;;;;;;;;;;;;;;;5084163;28;20010;-61
2022/09/06 02:49:26;;;;;;;;;;;;;;;;;;5094114;28;19971;-61
2022/09/06 02:51:53;;;;;;;;;;;;;;;;;;5092891;28;19924;-61
2022/09/06 02:54:21;;;;;;;;;;;;;;;;;;5073821;28;19924;-61
2022/09/06 02:56:48;;;;;;;;;;;;;;;;;;5073811;28;19928;-61
2022/09/06 02:59:14;;;;;;;;;;;;;;;;;;5073529;28;19924;-61
2022/09/06 03:01:41;;;;;;;;;;;;;;;;;;5073267;28;20292;-61
2022/09/06 03:04:07;;;;;;;;;;;;;;;;;;5073539;28;19924;-60
2022/09/06 03:06:34;;;;;;;;;;;;;;;;;;5073597;28;19968;-61
2022/09/06 03:09:01;;;;;;;;;;;;;;;;;;5073507;28;20169;-61
2022/09/06 03:11:29;;;;;;;;;;;;;;;;;;5073080;28;19925;-61
2022/09/06 03:13:55;;;;;;;;;;;;;;;;;;5073772;28;20023;-61
2022/09/06 03:16:22;;;;;;;;;;;;;;;;;;5073259;28;19925;-60
2022/09/06 03:18:49;;;;;;;;;;;;;;;;;;5073367;28;19930;-61
2022/09/06 03:21:15;;;;;;;;;;;;;;;;;;5073273;28;20143;-62
2022/09/06 03:23:42;;;;;;;;;;;;;;;;;;5073106;28;19932;-60
2022/09/06 03:26:09;;;;;;;;;;;;;;;;;;5073064;28;19928;-62
2022/09/06 03:28:36;;;;;;;;;;;;;;;;;;5072814;28;19978;-62
2022/09/06 03:31:03;;;;;;;;;;;;;;;;;;5072705;28;19928;-61
2022/09/06 03:33:30;;;;;;;;;;;;;;;;;;5072978;28;19924;-61
2022/09/06 03:35:59;;;;;;;;;;;;;;;;;;5072274;28;20215;-61
2022/09/06 03:38:27;;;;;;;;;;;;;;;;;;5072950;28;19935;-61
2022/09/06 03:40:53;;;;;;;;;;;;;;;;;;5072546;28;19924;-61
2022/09/06 03:43:20;;;;;;;;;;;;;;;;;;5081015;28;19924;-61
2022/09/06 03:45:50;;;;;;;;;;;;;;;;;;5093165;28;19931;-61
2022/09/06 03:48:17;;;;;;;;;;;;;;;;;;5093291;28;20356;-61
2022/09/06 03:50:44;;;;;;;;;;;;;;;;;;5092710;28;20300;-61
2022/09/06 03:53:11;;;;;;;;;;;;;;;;;;5092886;28;19924;-61
2022/09/06 03:55:37;;;;;;;;;;;;;;;;;;5092208;28;20396;-61
2022/09/06 03:58:04;;;;;;;;;;;;;;;;;;5093284;28;19932;-62
2022/09/06 04:00:32;;;;;;;;;;;;;;;;;;5091928;28;19978;-61
2022/09/06 04:03:00;;;;;;;;;;;;;;;;;;5074630;28;19924;-61
2022/09/06 04:05:26;;;;;;;;;;;;;;;;;;5072446;28;20389;-61
2022/09/06 04:07:53;;;;;;;;;;;;;;;;;;5074728;28;19924;-60
2022/09/06 04:10:20;;;;;;;;;;;;;;;;;;5092325;28;20292;-61
2022/09/06 04:12:46;;;;;;;;;;;;;;;;;;5082015;28;20276;-61
2022/09/06 04:15:13;;;;;;;;;;;;;;;;;;5072471;28;19928;-61
2022/09/06 04:17:43;;;;;;;;;;;;;;;;;;5072232;28;20131;-61
2022/09/06 04:20:11;;;;;;;;;;;;;;;;;;5071688;28;19924;-61
2022/09/06 04:22:38;;;;;;;;;;;;;;;;;;5072197;28;19974;-61
2022/09/06 04:25:05;;;;;;;;;;;;;;;;;;5072541;28;20403;-61
2022/09/06 04:27:31;;;;;;;;;;;;;;;;;;5072343;28;20468;-62
2022/09/06 04:29:58;;;;;;;;;;;;;;;;;;5071859;28;19970;-61
2022/09/06 04:32:25;;;;;;;;;;;;;;;;;;5071893;28;19931;-62
2022/09/06 04:34:51;;;;;;;;;;;;;;;;;;5077616;28;19931;-61
2022/09/06 04:37:19;;;;;;;;;;;;;;;;;;5072036;28;19928;-61
2022/09/06 04:39:46;;;;;;;;;;;;;;;;;;5071807;28;20412;-61
2022/09/06 04:42:12;;;;;;;;;;;;;;;;;;5074124;28;19932;-61
2022/09/06 04:44:39;;;;;;;;;;;;;;;;;;5071859;28;19970;-61
2022/09/06 04:47:08;;;;;;;;;;;;;;;;;;5072168;28;20392;-61
2022/09/06 04:49:35;;;;;;;;;;;;;;;;;;5071820;28;19924;-61
2022/09/06 04:52:02;;;;;;;;;;;;;;;;;;5071831;28;19924;-62
2022/09/06 04:54:30;;;;;;;;;;;;;;;;;;5071630;28;20300;-60
2022/09/06 04:56:56;;;;;;;;;;;;;;;;;;5072069;28;20002;-59
2022/09/06 04:59:23;;;;;;;;;;;;;;;;;;5081506;28;19925;-63
2022/09/06 05:01:50;;;;;;;;;;;;;;;;;;5083374;28;19931;-63
2022/09/06 05:04:16;;;;;;;;;;;;;;;;;;5071618;28;20336;-61
2022/09/06 05:06:43;;;;;;;;;;;;;;;;;;5071662;28;19924;-61
2022/09/06 05:09:10;;;;;;;;;;;;;;;;;;5071522;28;19928;-61
2022/09/06 05:11:38;;;;;;;;;;;;;;;;;;5073176;28;19924;-61
2022/09/06 05:14:04;;;;;;;;;;;;;;;;;;5077292;28;19928;-60
2022/09/06 05:16:31;;;;;;;;;;;;;;;;;;5096056;28;19931;-62
2022/09/06 05:18:58;;;;;;;;;;;;;;;;;;5095703;28;19928;-62
2022/09/06 05:21:24;;;;;;;;;;;;;;;;;;5095692;28;19928;-61
2022/09/06 05:23:51;;;;;;;;;;;;;;;;;;5091899;28;20282;-61
2022/09/06 05:26:18;;;;;;;;;;;;;;;;;;5075729;28;20015;-62
2022/09/06 05:28:46;;;;;;;;;;;;;;;;;;5075742;28;19966;-62
2022/09/06 05:31:22;;;;;;;;;;;;;;;;;;5075581;28;19931;-62
2022/09/06 05:33:49;;;;;;;;;;;;;;;;;;5075139;28;19936;-60
2022/09/06 05:36:15;;;;;;;;;;;;;;;;;;5075520;28;20014;-61
2022/09/06 05:38:42;;;;;;;;;;;;;;;;;;5075133;28;19931;-61
2022/09/06 05:41:08;;;;;;;;;;;;;;;;;;5074902;28;19951;-61
2022/09/06 05:43:35;;;;;;;;;;;;;;;;;;5075002;28;19924;-61
2022/09/06 05:46:03;;;;;;;;;;;;;;;;;;5074995;28;19928;-61
2022/09/06 05:48:30;;;;;;;;;;;;;;;;;;5074871;28;19935;-60
2022/09/06 05:51:00;;;;;;;;;;;;;;;;;;5093256;28;19924;-60
2022/09/06 05:53:27;;;;;;;;;;;;;;;;;;5095125;28;19931;-60
2022/09/06 05:55:53;;;;;;;;;;;;;;;;;;5095378;28;19924;-61
2022/09/06 05:58:20;;;;;;;;;;;;;;;;;;5095121;28;19924;-62
2022/09/06 06:00:47;;;;;;;;;;;;;;;;;;5094882;28;19924;-61
2022/09/06 06:03:15;;;;;;;;;;;;;;;;;;5075065;28;19925;-61
2022/09/06 06:05:46;;;;;;;;;;;;;;;;;;5074815;28;19947;-61
2022/09/06 06:08:12;;;;;;;;;;;;;;;;;;5074779;28;19925;-61
2022/09/06 06:10:39;;;;;;;;;;;;;;;;;;5074369;28;20407;-62
2022/09/06 06:13:06;;;;;;;;;;;;;;;;;;5074375;28;20051;-62
2022/09/06 06:15:33;;;;;;;;;;;;;;;;;;5087756;28;19928;-61
2022/09/06 06:17:59;;;;;;;;;;;;;;;;;;5095234;28;20344;-61
2022/09/06 06:20:27;;;;;;;;;;;;;;;;;;5094564;28;19924;-61
2022/09/06 06:22:54;;;;;;;;;;;;;;;;;;5093953;28;20309;-62
2022/09/06 06:25:24;;;;;;;;;;;;;;;;;;5094426;28;19924;-61
2022/09/06 06:27:51;;;;;;;;;;;;;;;;;;5094830;28;19924;-61
2022/09/06 06:30:18;;;;;;;;;;;;;;;;;;5093086;28;19928;-61
2022/09/06 06:32:44;;;;;;;;;;;;;;;;;;5066995;28;19932;-61
2022/09/06 06:35:12;;;;;;;;;;;;;;;;;;5073795;28;19936;-62
2022/09/06 06:37:41;;;;;;;;;;;;;;;;;;5073691;28;19928;-62
2022/09/06 06:40:08;;;;;;;;;;;;;;;;;;5074942;28;20373;-62
2022/09/06 06:42:34;;;;;;;;;;;;;;;;;;5074014;28;19931;-62
2022/09/06 06:45:01;;;;;;;;;;;;;;;;;;5074015;28;19932;-61
2022/09/06 06:47:28;;;;;;;;;;;;;;;;;;5073690;28;19924;-61
2022/09/06 06:49:54;;;;;;;;;;;;;;;;;;5073599;28;19929;-61
2022/09/06 06:52:23;;;;;;;;;;;;;;;;;;5073549;28;19924;-61
2022/09/06 06:54:51;;;;;;;;;;;;;;;;;;5074782;28;19928;-61
2022/09/06 06:57:17;;;;;;;;;;;;;;;;;;5073746;28;19932;-62
2022/09/06 06:59:44;;;;;;;;;;;;;;;;;;5073430;28;19970;-61
2022/09/06 07:02:11;;;;;;;;;;;;;;;;;;5073597;28;19924;-61
2022/09/06 07:04:37;;;;;;;;;;;;;;;;;;5072988;28;19928;-61
2022/09/06 07:07:05;;;;;;;;;;;;;;;;;;5084533;28;19932;-61
2022/09/06 07:09:31;;;;;;;;;;;;;;;;;;5070490;28;19963;-62
2022/09/06 07:11:59;;;;;;;;;;;;;;;;;;5071593;28;19936;-60
2022/09/06 07:14:26;;;;;;;;;;;;;;;;;;5074772;28;20404;-62
2022/09/06 07:16:57;;;;;;;;;;;;;;;;;;5077989;28;19925;-62
2022/09/06 07:19:23;;;;;;;;;;;;;;;;;;5071137;28;20578;-62
2022/09/06 07:21:50;;;;;;;;;;;;;;;;;;5071264;28;19932;-61
2022/09/06 07:24:17;;;;;;;;;;;;;;;;;;5071148;28;20363;-61
2022/09/06 07:26:43;;;;;;;;;;;;;;;;;;5071452;28;19924;-61
2022/09/06 07:29:12;;;;;;;;;;;;;;;;;;5070828;28;19932;-62
2022/09/06 07:31:39;;;;;;;;;;;;;;;;;;5070928;28;19932;-62
2022/09/06 07:34:05;;;;;;;;;;;;;;;;;;5070403;28;19929;-62
2022/09/06 07:36:32;;;;;;;;;;;;;;;;;;5070037;28;20400;-62
2022/09/06 07:38:58;;;;;;;;;;;;;;;;;;5071241;28;19935;-62
2022/09/06 07:41:25;;;;;;;;;;;;;;;;;;5070732;28;20328;-62
2022/09/06 07:43:53;;;;;;;;;;;;;;;;;;5070951;28;19925;-61
2022/09/06 07:46:22;;;;;;;;;;;;;;;;;;5071370;28;20018;-62
2022/09/06 07:48:49;;;;;;;;;;;;;;;;;;5071366;28;19963;-61
2022/09/06 07:51:17;;;;;;;;;;;;;;;;;;5070503;28;19955;-61
2022/09/06 07:53:45;;;;;;;;;;;;;;;;;;5070681;28;20005;-61
2022/09/06 07:56:12;;;;;;;;;;;;;;;;;;5070745;28;19966;-63
2022/09/06 07:58:39;;;;;;;;;;;;;;;;;;5071185;28;19930;-62
2022/09/06 08:01:16;;;;;;;;;;;;;;;;;;5070467;28;19924;-62
2022/09/06 08:03:46;;;;;;;;;;;;;;;;;;5070327;28;19924;-62
2022/09/06 08:06:13;;;;;;;;;;;;;;;;;;5071138;28;19986;-63
2022/09/06 08:08:40;;;;;;;;;;;;;;;;;;5061245;28;20323;-62
2022/09/06 08:11:07;;;;;;;;;;;;;;;;;;5070526;28;19928;-64
2022/09/06 08:13:34;;;;;;;;;;;;;;;;;;5072730;28;19932;-67
2022/09/06 08:16:00;;;;;;;;;;;;;;;;;;5090813;28;20620;-66
2022/09/06 08:18:27;;;;;;;;;;;;;;;;;;5090850;28;19924;-65
2022/09/06 08:20:56;;;;;;;;;;;;;;;;;;5088429;28;19933;-64
2022/09/06 08:23:23;;;;;;;;;;;;;;;;;;5090837;28;19924;-64
2022/09/06 08:25:56;;;;;;;;;;;;;;;;;;5103292;22;19930;-67
2022/09/06 08:28:23;;;;;;;;;;;;;;;;;;5090905;28;20006;-68
2022/09/06 08:30:50;;;;;;;;;;;;;;;;;;5090186;28;19932;-67
2022/09/06 08:33:24;;;;;;;;;;;;;;;;;;5091670;28;20003;-67
2022/09/06 08:35:58;;;;;;;;;;;;;;;;;;5091733;28;20288;-67
2022/09/06 08:38:25;;;;;;;;;;;;;;;;;;5089800;28;19955;-69
2022/09/06 08:40:52;;;;;;;;;;;;;;;;;;5090725;28;19969;-64
2022/09/06 08:43:20;;;;;;;;;;;;;;;;;;5091159;28;19982;-66
2022/09/06 08:45:54;;;;;;;;;;;;;;;;;;5090436;28;19924;-68
2022/09/06 08:48:20;;;;;;;;;;;;;;;;;;5071141;28;20389;-67
2022/09/06 08:50:50;;;;;;;;;;;;;;;;;;5073220;28;19932;-67
2022/09/06 08:53:19;;;;;;;;;;;;;;;;;;5091486;28;20389;-66
2022/09/06 08:55:48;;;;;;;;;;;;;;;;;;5093535;28;20303;-65
2022/09/06 08:58:23;;;;;;;;;;;;;;;;;;5093742;28;20289;-65
2022/09/06 09:00:52;;;;;;;;;;;;;;;;;;5093897;28;19928;-67
2022/09/06 09:03:20;;;;;;;;;;;;;;;;;;5092447;28;19931;-68
2022/09/06 09:05:48;;;;;;;;;;;;;;;;;;5089881;28;19932;-68
2022/09/06 09:08:20;;;;;;;;;;;;;;;;;;5089782;28;20315;-67
2022/09/06 09:10:49;;;;;;;;;;;;;;;;;;5090184;28;19924;-66
2022/09/06 09:13:22;;;;;;;;;;;;;;;;;;5088046;28;19924;-65
2022/09/06 09:15:48;;;;;;;;;;;;;;;;;;5089562;28;20383;-66
2022/09/06 09:18:18;;;;;;;;;;;;;;;;;;5090071;28;19930;-65
2022/09/06 09:20:44;;;;;;;;;;;;;;;;;;5088361;28;20020;-66
2022/09/06 09:23:11;;;;;;;;;;;;;;;;;;5089957;28;20439;-65
2022/09/06 09:25:39;;;;;;;;;;;;;;;;;;5089680;28;20297;-65
2022/09/06 09:28:10;;;;;;;;;;;;;;;;;;5089752;28;20007;-65
2022/09/06 09:30:46;;;;;;;;;;;;;;;;;;5090183;28;19977;-64
2022/09/06 09:33:20;;;;;;;;;;;;;;;;;;5089933;28;19946;-65
2022/09/06 09:35:47;;;;;;;;;;;;;;;;;;5090463;28;19928;-65
2022/09/06 09:38:20;;;;;;;;;;;;;;;;;;5090140;28;19947;-65
2022/09/06 09:40:49;;;;;;;;;;;;;;;;;;5090294;28;20014;-65
2022/09/06 09:43:20;;;;;;;;;;;;;;;;;;5089122;28;20015;-66
2022/09/06 09:45:48;;;;;;;;;;;;;;;;;;5089943;28;20031;-65
2022/09/06 09:48:23;;;;;;;;;;;;;;;;;;5089118;28;19931;-66
2022/09/06 09:50:50;;;;;;;;;;;;;;;;;;5089438;28;19935;-65
2022/09/06 09:53:17;;;;;;;;;;;;;;;;;;5089417;28;19925;-65
2022/09/06 09:55:44;;;;;;;;;;;;;;;;;;5088888;28;19931;-65
2022/09/06 09:58:19;;;;;;;;;;;;;;;;;;5090400;28;20400;-65
2022/09/06 10:00:47;;;;;;;;;;;;;;;;;;5093133;28;19924;-65
2022/09/06 10:03:14;;;;;;;;;;;;;;;;;;5093056;28;20338;-65
2022/09/06 10:05:41;;;;;;;;;;;;;;;;;;5093113;28;19928;-65
2022/09/06 10:08:10;;;;;;;;;;;;;;;;;;5093604;28;19924;-65
2022/09/06 10:10:39;;;;;;;;;;;;;;;;;;5092834;28;19924;-65
2022/09/06 10:13:06;;;;;;;;;;;;;;;;;;5092947;28;19940;-65
2022/09/06 10:15:34;;;;;;;;;;;;;;;;;;5092357;28;20014;-65
2022/09/06 10:18:03;;;;;;;;;;;;;;;;;;5092524;28;19924;-65
2022/09/06 10:20:32;;;;;;;;;;;;;;;;;;5092693;28;19924;-66
2022/09/06 10:23:01;;;;;;;;;;;;;;;;;;5093132;28;20459;-65
2022/09/06 10:25:36;;;;;;;;;;;;;;;;;;5091857;28;19924;-63
2022/09/06 10:28:22;;;;;;;;;;;;;;;;;;5092532;28;20015;-65
2022/09/06 10:30:54;;;;;;;;;;;;;;;;;;5093114;28;19927;-66
2022/09/06 10:33:27;;;;;;;;;;;;;;;;;;5093000;28;20229;-66
2022/09/06 10:35:56;;;;;;;;;;;;;;;;;;5072951;28;19924;-67
2022/09/06 10:38:32;;;;;;;;;;;;;;;;;;5072837;28;19986;-66
2022/09/06 10:41:05;;;;;;;;;;;;;;;;;;5073120;28;20039;-66
2022/09/06 10:43:35;;;;;;;;;;;;;;;;;;5072928;28;20293;-66
2022/09/06 10:46:09;;;;;;;;;;;;;;;;;;5072460;28;19924;-67
2022/09/06 10:48:40;;;;;;;;;;;;;;;;;;5072450;28;20574;-64
2022/09/06 10:51:09;;;;;;;;;;;;;;;;;;5073076;28;19925;-68
2022/09/06 10:53:39;;;;;;;;;;;;;;;;;;5073561;28;19931;-69
2022/09/06 10:56:07;;;;;;;;;;;;;;;;;;5082495;28;20280;-67
2022/09/06 10:58:36;;;;;;;;;;;;;;;;;;5093042;28;19928;-69
2022/09/06 11:01:05;;;;;;;;;;;;;;;;;;5093615;28;19932;-68
2022/09/06 11:03:34;;;;;;;;;;;;;;;;;;5092907;28;20005;-69
2022/09/06 11:06:05;;;;;;;;;;;;;;;;;;5092503;28;19924;-67
2022/09/06 11:08:35;;;;;;;;;;;;;;;;;;5092635;28;19935;-67
2022/09/06 11:11:05;;;;;;;;;;;;;;;;;;5092908;28;20396;-67
2022/09/06 11:13:32;;;;;;;;;;;;;;;;;;5074182;28;20408;-68
2022/09/06 11:16:01;;;;;;;;;;;;;;;;;;5088068;28;20400;-67
2022/09/06 11:18:31;;;;;;;;;;;;;;;;;;5092325;28;20248;-66
2022/09/06 11:21:08;;;;;;;;;;;;;;;;;;5092643;28;19938;-67
2022/09/06 11:23:47;;;;;;;;;;;;;;;;;;5092372;28;19924;-67
2022/09/06 11:26:34;;;;;;;;;;;;;;;;;;5092820;28;19928;-67
2022/09/06 11:29:02;;;;;;;;;;;;;;;;;;5092938;28;20015;-67
2022/09/06 11:31:31;;;;;;;;;;;;;;;;;;5092678;28;19924;-67
2022/09/06 11:34:03;;;;;;;;;;;;;;;;;;5092497;28;19963;-67
2022/09/06 11:36:34;;;;;;;;;;;;;;;;;;5092093;28;19928;-66
2022/09/06 11:39:03;;;;;;;;;;;;;;;;;;5092237;28;19924;-67
2022/09/06 11:41:31;;;;;;;;;;;;;;;;;;5092543;28;20296;-67
2022/09/06 11:43:58;;;;;;;;;;;;;;;;;;5092103;28;19928;-66
2022/09/06 11:46:51;;;;;;;;;;;;;;;;;;5092835;28;19938;-66
2022/09/06 11:49:36;;;;;;;;;;;;;;;;;;5056545;28;19924;-67
2022/09/06 11:52:22;;;;;;;;;;;;;;;;;;5093278;28;19924;-67
2022/09/06 11:54:52;;;;;;;;;;;;;;;;;;5092875;28;19924;-67
2022/09/06 11:57:22;;;;;;;;;;;;;;;;;;5093078;28;19931;-67
2022/09/06 11:59:52;;;;;;;;;;;;;;;;;;5092176;28;19924;-67
2022/09/06 12:02:29;;;;;;;;;;;;;;;;;;5092823;28;19924;-67
2022/09/06 12:05:10;;;;;;;;;;;;;;;;;;5093394;28;20022;-68
2022/09/06 12:07:37;;;;;;;;;;;;;;;;;;5092570;28;19924;-67
2022/09/06 12:10:19;;;;;;;;;;;;;;;;;;5092208;28;19928;-67
2022/09/06 12:12:49;;;;;;;;;;;;;;;;;;5092088;28;19931;-67
2022/09/06 12:15:25;;;;;;;;;;;;;;;;;;5091123;28;19939;-67
2022/09/06 12:17:52;;;;;;;;;;;;;;;;;;5092178;28;19924;-66
2022/09/06 12:20:37;;;;;;;;;;;;;;;;;;5091710;28;19924;-66
2022/09/06 12:23:04;;;;;;;;;;;;;;;;;;5091099;28;19932;-67
2022/09/06 12:25:49;;;;;;;;;;;;;;;;;;5091817;28;20006;-66
2022/09/06 12:28:23;;;;;;;;;;;;;;;;;;5091287;28;19924;-67
2022/09/06 12:30:50;;;;;;;;;;;;;;;;;;5091541;28;20335;-67
2022/09/06 12:33:20;;;;;;;;;;;;;;;;;;5091621;28;19963;-67
2022/09/06 12:35:47;;;;;;;;;;;;;;;;;;5092070;28;19924;-66
2022/09/06 12:38:17;;;;;;;;;;;;;;;;;;5091878;28;20403;-66
2022/09/06 12:40:46;;;;;;;;;;;;;;;;;;5091220;28;19924;-67
2022/09/06 12:43:16;;;;;;;;;;;;;;;;;;5092482;28;19929;-67
2022/09/06 12:45:44;;;;;;;;;;;;;;;;;;5093986;28;19978;-66
2022/09/06 12:48:12;;;;;;;;;;;;;;;;;;5092458;28;19930;-67
2022/09/06 12:50:39;;;;;;;;;;;;;;;;;;5092729;28;19931;-67
2022/09/06 12:53:17;;;;;;;;;;;;;;;;;;5092616;28;20408;-66
2022/09/06 12:55:44;;;;;;;;;;;;;;;;;;5091826;28;19924;-67
2022/09/06 12:58:12;;;;;;;;;;;;;;;;;;5092071;28;19924;-66
2022/09/06 13:00:40;;;;;;;;;;;;;;;;;;5092737;28;19925;-66
2022/09/06 13:03:17;;;;;;;;;;;;;;;;;;5078319;28;19939;-68
2022/09/06 13:05:44;;;;;;;;;;;;;;;;;;5089775;28;19969;-67
2022/09/06 13:08:13;;;;;;;;;;;;;;;;;;5091211;28;20011;-67
2022/09/06 13:10:42;;;;;;;;;;;;;;;;;;5093919;28;19924;-67
2022/09/06 13:13:08;;;;;;;;;;;;;;;;;;5089461;28;19932;-67
2022/09/06 13:15:35;;;;;;;;;;;;;;;;;;5090488;28;20351;-66
2022/09/06 13:18:22;;;;;;;;;;;;;;;;;;5090190;28;20449;-66
2022/09/06 13:20:59;;;;;;;;;;;;;;;;;;5090425;28;19924;-68
2022/09/06 13:23:26;;;;;;;;;;;;;;;;;;5091401;28;19935;-67
2022/09/06 13:25:53;;;;;;;;;;;;;;;;;;5091098;28;19924;-66
2022/09/06 13:28:24;;;;;;;;;;;;;;;;;;5091016;28;20002;-66
2022/09/06 13:31:02;;;;;;;;;;;;;;;;;;5089131;28;19931;-68
2022/09/06 13:33:30;;;;;;;;;;;;;;;;;;5092619;28;19924;-66
2022/09/06 13:36:05;;;;;;;;;;;;;;;;;;5092039;28;19925;-67
2022/09/06 13:38:33;;;;;;;;;;;;;;;;;;5091412;28;19924;-67
2022/09/06 13:41:00;;;;;;;;;;;;;;;;;;5096187;28;19930;-66
2022/09/06 13:43:27;;;;;;;;;;;;;;;;;;5094849;28;19924;-66
2022/09/06 13:46:04;;;;;;;;;;;;;;;;;;5095091;28;19925;-67
2022/09/06 13:48:32;;;;;;;;;;;;;;;;;;5095371;28;19931;-67
2022/09/06 13:50:59;;;;;;;;;;;;;;;;;;5094899;28;19924;-67
2022/09/06 13:53:26;;;;;;;;;;;;;;;;;;5093817;28;19935;-67
2022/09/06 13:55:53;;;;;;;;;;;;;;;;;;5093486;28;20389;-67
2022/09/06 13:58:20;;;;;;;;;;;;;;;;;;5091914;28;19936;-66
2022/09/06 14:00:47;;;;;;;;;;;;;;;;;;5089349;28;19950;-66
2022/09/06 14:03:17;;;;;;;;;;;;;;;;;;5092886;28;20441;-67
2022/09/06 14:05:45;;;;;;;;;;;;;;;;;;5093549;28;19925;-66
2022/09/06 14:08:12;;;;;;;;;;;;;;;;;;5093265;28;19928;-67
2022/09/06 14:10:39;;;;;;;;;;;;;;;;;;5093362;28;20380;-66
2022/09/06 14:13:06;;;;;;;;;;;;;;;;;;5092676;28;19979;-67
2022/09/06 14:15:32;;;;;;;;;;;;;;;;;;5093324;28;19970;-66
2022/09/06 14:17:59;;;;;;;;;;;;;;;;;;5093403;28;19931;-67
2022/09/06 14:20:26;;;;;;;;;;;;;;;;;;5092858;28;20392;-67
2022/09/06 14:22:54;;;;;;;;;;;;;;;;;;5092897;28;19924;-66
2022/09/06 14:25:20;;;;;;;;;;;;;;;;;;5092905;28;19932;-66
2022/09/06 14:27:47;;;;;;;;;;;;;;;;;;5093254;28;19923;-66
2022/09/06 14:30:14;;;;;;;;;;;;;;;;;;5093131;28;19924;-66
2022/09/06 14:32:41;;;;;;;;;;;;;;;;;;5093710;28;19924;-67
2022/09/06 14:35:08;;;;;;;;;;;;;;;;;;5092700;28;19924;-67
2022/09/06 14:37:34;;;;;;;;;;;;;;;;;;5092877;28;20435;-67
2022/09/06 14:40:03;;;;;;;;;;;;;;;;;;5093248;28;19924;-67
2022/09/06 14:42:30;;;;;;;;;;;;;;;;;;5092804;28;19924;-67
2022/09/06 14:44:56;;;;;;;;;;;;;;;;;;5092170;28;19928;-66
2022/09/06 14:47:23;;;;;;;;;;;;;;;;;;5093946;28;20374;-67
2022/09/06 14:49:50;;;;;;;;;;;;;;;;;;5092905;28;20326;-65
2022/09/06 14:52:17;;;;;;;;;;;;;;;;;;5092311;28;19932;-66
2022/09/06 14:54:43;;;;;;;;;;;;;;;;;;5093103;28;20366;-66
2022/09/06 14:57:11;;;;;;;;;;;;;;;;;;5093278;28;19928;-67
2022/09/06 14:59:38;;;;;;;;;;;;;;;;;;5093632;28;19931;-67
2022/09/06 15:02:05;;;;;;;;;;;;;;;;;;5092276;28;19924;-67
2022/09/06 15:04:32;;;;;;;;;;;;;;;;;;5092519;28;20301;-66
2022/09/06 15:06:59;;;;;;;;;;;;;;;;;;5092960;28;20295;-67
2022/09/06 15:09:26;;;;;;;;;;;;;;;;;;5092430;28;19931;-64
2022/09/06 15:11:53;;;;;;;;;;;;;;;;;;5092889;28;19924;-72
2022/09/06 15:14:22;;;;;;;;;;;;;;;;;;5093144;28;20019;-69
2022/09/06 15:16:49;;;;;;;;;;;;;;;;;;5092778;28;20609;-62
2022/09/06 15:19:16;;;;;;;;;;;;;;;;;;5092925;28;19967;-65
2022/09/06 15:21:43;;;;;;;;;;;;;;;;;;5092852;28;20304;-65
2022/09/06 15:24:09;;;;;;;;;;;;;;;;;;5092263;28;19924;-65
2022/09/06 15:26:36;;;;;;;;;;;;;;;;;;5092560;28;19931;-65
2022/09/06 15:29:03;;;;;;;;;;;;;;;;;;5092669;28;19928;-64
2022/09/06 15:31:33;;;;;;;;;;;;;;;;;;5092641;28;20010;-64
2022/09/06 15:34:00;;;;;;;;;;;;;;;;;;5092894;28;20459;-63
2022/09/06 15:36:27;;;;;;;;;;;;;;;;;;5092429;28;20385;-65
2022/09/06 15:38:56;;;;;;;;;;;;;;;;;;5093447;28;19924;-71
2022/09/06 15:41:24;;;;;;;;;;;;;;;;;;5093907;28;19928;-64
2022/09/06 15:43:52;;;;;;;;;;;;;;;;;;5092269;28;19932;-65
2022/09/06 15:46:20;;;;;;;;;;;;;;;;;;5092212;28;19924;-66
2022/09/06 15:48:49;;;;;;;;;;;;;;;;;;5092668;28;19928;-65
2022/09/06 15:51:16;;;;;;;;;;;;;;;;;;5092300;28;20011;-64
2022/09/06 15:53:43;;;;;;;;;;;;;;;;;;5092673;28;20407;-64
2022/09/06 15:56:12;;;;;;;;;;;;;;;;;;5091292;28;19931;-63
2022/09/06 15:58:39;;;;;;;;;;;;;;;;;;5074121;28;20432;-65
2022/09/06 16:01:09;;;;;;;;;;;;;;;;;;5091908;28;19936;-66
2022/09/06 16:03:37;;;;;;;;;;;;;;;;;;5071643;28;19925;-64
2022/09/06 16:06:06;;;;;;;;;;;;;;;;;;5071243;28;19925;-65
2022/09/06 16:08:34;;;;;;;;;;;;;;;;;;5071237;28;19932;-65
2022/09/06 16:11:02;;;;;;;;;;;;;;;;;;5071142;28;20443;-64
2022/09/06 16:13:32;;;;;;;;;;;;;;;;;;5082441;28;19928;-65
2022/09/06 16:15:59;;;;;;;;;;;;;;;;;;5091574;28;19924;-65
2022/09/06 16:18:26;;;;;;;;;;;;;;;;;;5091662;28;20436;-65
2022/09/06 16:20:52;;;;;;;;;;;;;;;;;;5091540;28;19930;-65
2022/09/06 16:23:20;;;;;;;;;;;;;;;;;;5091555;28;19941;-65
2022/09/06 16:25:48;;;;;;;;;;;;;;;;;;5091559;28;19934;-66
2022/09/06 16:28:15;;;;;;;;;;;;;;;;;;5091551;28;19946;-64
2022/09/06 16:30:42;;;;;;;;;;;;;;;;;;5090559;28;20305;-65
2022/09/06 16:33:10;;;;;;;;;;;;;;;;;;5091137;28;19990;-65
2022/09/06 16:35:38;;;;;;;;;;;;;;;;;;5091026;28;20456;-65
2022/09/06 16:38:04;;;;;;;;;;;;;;;;;;5090934;28;19932;-65
2022/09/06 16:40:33;;;;;;;;;;;;;;;;;;5091083;28;20322;-65
2022/09/06 16:42:59;;;;;;;;;;;;;;;;;;5091141;28;19924;-64
2022/09/06 16:45:30;;;;;;;;;;;;;;;;;;5124913;22;19936;-79
2022/09/06 16:47:57;;;;;;;;;;;;;;;;;;5099736;28;19952;-84
2022/09/06 16:50:24;;;;;;;;;;;;;;;;;;5098822;28;19993;-86
2022/09/06 16:52:51;;;;;;;;;;;;;;;;;;5099205;28;20324;-90
2022/09/06 16:55:18;;;;;;;;;;;;;;;;;;5097809;28;19934;-83
2022/09/06 16:57:46;;;;;;;;;;;;;;;;;;5099527;28;20017;-87
2022/09/06 17:00:14;;;;;;;;;;;;;;;;;;5101156;28;19928;-81